Time;durP1;ratioP1;P1;durP2;ratioP2;P2;SDS_P1;SDS_P2;PMS_P1;PMS_P2;Temp;Humidity;BMP_temperature;BMP_pressure;BME280_temperature;BME280_humidity;BME280_pressure;Samples;Min_cycle;Max_cycle;Signal;HPM_P1;HPM_P2
2021/10/23 00:01:56;;;;;;;;;;;;;;;;;;10393113;28;20068;-72
2021/10/23 00:06:59;;;;;;;1.83;1.27;;;;;;;;;;10390125;28;19925;-72
2021/10/23 00:12:04;;;;;;;3.73;1.73;;;;;;;;;;10388786;28;20045;-71
2021/10/23 00:17:06;;;;;;;2.30;1.23;;;;;;;;;;10384542;28;20041;-73
2021/10/23 00:22:09;;;;;;;4.83;2.00;;;;;;;;;;10385929;28;20052;-72
2021/10/23 00:27:13;;;;;;;4.60;1.53;;;;;;;;;;10388191;28;20051;-72
2021/10/23 00:32:16;;;;;;;;;;;;;;;;;;10390573;28;20125;-74
2021/10/23 00:37:19;;;;;;;1.60;0.87;;;;;;;;;;10391725;28;19928;-73
2021/10/23 00:42:24;;;;;;;2.83;1.00;;;;;;;;;;10377004;28;20042;-74
2021/10/23 00:47:26;;;;;;;;;;;;;;;;;;10392199;28;20049;-72
2021/10/23 00:52:29;;;;;;;5.30;1.30;;;;;;;;;;10394122;28;19925;-71
2021/10/23 00:57:33;;;;;;;4.90;1.20;;;;;;;;;;10391310;28;20042;-70
2021/10/23 01:02:36;;;;;;;;;;;;;;;;;;10384254;28;20129;-71
2021/10/23 01:07:39;;;;;;;0.80;0.67;;;;;;;;;;10386746;28;20899;-70
2021/10/23 01:12:51;;;;;;;12.37;2.80;;;;;;;;;;10385982;28;20044;-70
2021/10/23 01:17:56;;;;;;;11.40;3.93;;;;;;;;;;10390845;28;20117;-72
2021/10/23 01:23:00;;;;;;;2.97;1.40;;;;;;;;;;10388737;28;20045;-72
2021/10/23 01:28:13;;;;;;;5.18;1.95;;;;;;;;;;10389842;28;20054;-74
2021/10/23 01:33:17;;;;;;;3.47;1.03;;;;;;;;;;10392129;28;20040;-72
2021/10/23 01:38:21;;;;;;;1.40;0.97;;;;;;;;;;10388018;28;20098;-73
2021/10/23 01:43:24;;;;;;;3.03;1.80;;;;;;;;;;10382316;28;20042;-72
2021/10/23 01:48:27;;;;;;;5.47;1.67;;;;;;;;;;10384498;28;20034;-72
2021/10/23 01:53:33;;;;;;;0.93;0.60;;;;;;;;;;10395140;28;20045;-73
2021/10/23 01:58:36;;;;;;;2.20;1.30;;;;;;;;;;10384107;28;20117;-73
2021/10/23 02:03:39;;;;;;;2.43;0.63;;;;;;;;;;10390275;28;20473;-72
2021/10/23 02:08:43;;;;;;;1.60;1.00;;;;;;;;;;10390939;28;20037;-75
2021/10/23 02:13:46;;;;;;;;;;;;;;;;;;10383387;28;20045;-73
2021/10/23 02:18:49;;;;;;;2.80;1.20;;;;;;;;;;10388848;28;19925;-73
2021/10/23 02:23:53;;;;;;;4.17;1.47;;;;;;;;;;10386951;28;20532;-74
2021/10/23 02:28:55;;;;;;;;;;;;;;;;;;10383723;28;20057;-73
2021/10/23 02:33:58;;;;;;;2.23;1.17;;;;;;;;;;10386027;28;20008;-72
2021/10/23 02:39:02;;;;;;;6.27;1.60;;;;;;;;;;10390033;28;20129;-72
2021/10/23 02:44:05;;;;;;;;;;;;;;;;;;10386350;28;20041;-71
2021/10/23 02:49:09;;;;;;;2.93;1.10;;;;;;;;;;10389915;28;19921;-71
2021/10/23 02:54:11;;;;;;;;;;;;;;;;;;10395121;28;20041;-73
2021/10/23 02:59:15;;;;;;;7.13;1.70;;;;;;;;;;10391456;28;19964;-72
2021/10/23 03:04:18;;;;;;;;;;;;;;;;;;10389481;28;20677;-72
2021/10/23 03:09:21;;;;;;;7.57;2.00;;;;;;;;;;10390432;28;19952;-72
2021/10/23 03:14:25;;;;;;;1.15;0.70;;;;;;;;;;10393834;28;20054;-70
2021/10/23 03:19:28;;;;;;;;;;;;;;;;;;10393666;28;20064;-71
2021/10/23 03:24:30;;;;;;;3.08;1.05;;;;;;;;;;10394809;28;20035;-72
2021/10/23 03:29:35;;;;;;;3.63;0.70;;;;;;;;;;10393112;28;20041;-73
2021/10/23 03:34:37;;;;;;;;;;;;;;;;;;10392720;28;20037;-73
2021/10/23 03:39:40;;;;;;;1.63;0.90;;;;;;;;;;10396318;28;19963;-72
2021/10/23 03:44:44;;;;;;;3.53;1.33;;;;;;;;;;10387170;28;20044;-73
2021/10/23 03:49:47;;;;;;;;;;;;;;;;;;10394033;28;20128;-73
2021/10/23 03:54:50;;;;;;;2.53;1.05;;;;;;;;;;10395703;28;20049;-72
2021/10/23 03:59:54;;;;;;;1.50;0.90;;;;;;;;;;10390645;28;20052;-72
2021/10/23 04:04:56;;;;;;;;;;;;;;;;;;10387357;28;20042;-73
2021/10/23 04:09:59;;;;;;;1.20;0.50;;;;;;;;;;10391281;28;19965;-73
2021/10/23 04:15:04;;;;;;;2.17;1.05;;;;;;;;;;10392574;28;20124;-72
2021/10/23 04:20:08;;;;;;;0.98;0.52;;;;;;;;;;10388994;28;20042;-71
2021/10/23 04:25:11;;;;;;;3.45;1.33;;;;;;;;;;10385616;28;20037;-73
2021/10/23 04:30:15;;;;;;;4.83;1.37;;;;;;;;;;10398233;28;20120;-72
2021/10/23 04:35:18;;;;;;;;;;;;;;;;;;10396423;28;20085;-73
2021/10/23 04:40:21;;;;;;;1.30;0.52;;;;;;;;;;10391191;28;19968;-71
2021/10/23 04:45:25;;;;;;;1.98;1.05;;;;;;;;;;10394105;28;20056;-73
2021/10/23 04:50:27;;;;;;;;;;;;;;;;;;10385119;28;20095;-73
2021/10/23 04:55:30;;;;;;;2.53;0.57;;;;;;;;;;10389486;28;19992;-73
2021/10/23 05:00:34;;;;;;;18.40;0.73;;;;;;;;;;10392153;28;20041;-72
2021/10/23 05:05:38;;;;;;;1.95;0.93;;;;;;;;;;10381522;28;20630;-72
2021/10/23 05:10:41;;;;;;;2.33;1.37;;;;;;;;;;10387036;28;20061;-73
2021/10/23 05:15:45;;;;;;;1.02;0.20;;;;;;;;;;10383298;28;20085;-73
2021/10/23 05:20:47;;;;;;;;;;;;;;;;;;10388519;28;20108;-73
2021/10/23 05:25:52;;;;;;;2.60;1.23;;;;;;;;;;10391561;28;19921;-72
2021/10/23 05:30:56;;;;;;;3.03;1.10;;;;;;;;;;10390148;28;20044;-73
2021/10/23 05:35:59;;;;;;;2.97;1.30;;;;;;;;;;10393831;28;20121;-73
2021/10/23 05:41:02;;;;;;;3.63;0.93;;;;;;;;;;10392432;28;20144;-72
2021/10/23 05:46:07;;;;;;;0.35;0.30;;;;;;;;;;10393602;28;20132;-73
2021/10/23 05:51:10;;;;;;;;;;;;;;;;;;10388086;28;20073;-72
2021/10/23 05:56:12;;;;;;;1.65;0.82;;;;;;;;;;10381640;28;19929;-73
2021/10/23 06:01:17;;;;;;;1.35;0.57;;;;;;;;;;10385025;28;20478;-72
2021/10/23 06:06:20;;;;;;;3.17;1.10;;;;;;;;;;10389555;28;20641;-72
2021/10/23 06:11:23;;;;;;;1.67;1.17;;;;;;;;;;10383339;28;20072;-72
2021/10/23 06:16:27;;;;;;;3.05;1.30;;;;;;;;;;10381662;28;20046;-73
2021/10/23 06:21:29;;;;;;;;;;;;;;;;;;10387697;28;20030;-72
2021/10/23 06:26:32;;;;;;;2.92;1.40;;;;;;;;;;10402867;28;19956;-71
2021/10/23 06:31:37;;;;;;;3.70;1.40;;;;;;;;;;10400243;28;20037;-73
2021/10/23 06:36:40;;;;;;;7.50;1.00;;;;;;;;;;10393722;28;20033;-72
2021/10/23 06:41:43;;;;;;;7.13;2.00;;;;;;;;;;10393808;28;20129;-71
2021/10/23 06:46:47;;;;;;;2.05;1.20;;;;;;;;;;10397329;28;20099;-73
2021/10/23 06:51:50;;;;;;;;;;;;;;;;;;10401591;28;20058;-73
2021/10/23 06:56:52;;;;;;;1.90;0.30;;;;;;;;;;10398892;28;19960;-72
2021/10/23 07:01:56;;;;;;;1.52;1.02;;;;;;;;;;10399884;28;20076;-73
2021/10/23 07:07:00;;;;;;;4.60;1.60;;;;;;;;;;10397960;28;20529;-72
2021/10/23 07:12:03;;;;;;;5.50;1.50;;;;;;;;;;10393389;28;20037;-72
2021/10/23 07:17:07;;;;;;;3.75;1.40;;;;;;;;;;10391172;28;20510;-73
2021/10/23 07:22:09;;;;;;;;;;;;;;;;;;10392060;28;20465;-71
2021/10/23 07:27:12;;;;;;;2.13;0.77;;;;;;;;;;10395973;28;20324;-72
2021/10/23 07:32:16;;;;;;;4.35;1.35;;;;;;;;;;10392480;28;20462;-73
2021/10/23 07:37:19;;;;;;;4.35;1.10;;;;;;;;;;10397882;28;20053;-73
2021/10/23 07:42:22;;;;;;;3.25;1.60;;;;;;;;;;10389185;28;20065;-72
2021/10/23 07:47:26;;;;;;;2.55;1.20;;;;;;;;;;10393133;28;20052;-72
2021/10/23 07:52:29;;;;;;;3.92;1.40;;;;;;;;;;10384312;28;20095;-72
2021/10/23 07:57:32;;;;;;;4.40;1.30;;;;;;;;;;10394718;28;20057;-71
2021/10/23 08:02:36;;;;;;;3.00;1.25;;;;;;;;;;10388791;28;20041;-73
2021/10/23 08:07:41;;;;;;;4.22;1.50;;;;;;;;;;10385574;28;20045;-72
2021/10/23 08:12:45;;;;;;;5.63;1.30;;;;;;;;;;10390439;28;20052;-73
2021/10/23 08:17:49;;;;;;;5.47;1.57;;;;;;;;;;10394045;28;20041;-72
2021/10/23 08:22:52;;;;;;;6.22;1.08;;;;;;;;;;10392019;28;20888;-74
2021/10/23 08:27:55;;;;;;;5.20;1.63;;;;;;;;;;10393478;28;20053;-73
2021/10/23 08:32:59;;;;;;;4.88;1.70;;;;;;;;;;10396518;28;20137;-73
2021/10/23 08:38:03;;;;;;;3.83;1.58;;;;;;;;;;10392787;28;20041;-71
2021/10/23 08:43:08;;;;;;;6.95;1.70;;;;;;;;;;10394927;28;20053;-73
2021/10/23 08:48:12;;;;;;;5.53;1.77;;;;;;;;;;10390304;28;20107;-73
2021/10/23 08:53:15;;;;;;;2.85;1.63;;;;;;;;;;10389846;28;20043;-74
2021/10/23 08:58:18;;;;;;;3.70;1.80;;;;;;;;;;10385766;28;20041;-72
2021/10/23 09:03:23;;;;;;;8.38;2.22;;;;;;;;;;10386469;28;20152;-70
2021/10/23 09:08:26;;;;;;;3.95;2.13;;;;;;;;;;10387250;28;20080;-72
2021/10/23 09:13:45;;;;;;;4.38;2.25;;;;;;;;;;10381184;28;20041;-73
2021/10/23 09:18:49;;;;;;;9.60;2.38;;;;;;;;;;10384680;28;20559;-73
2021/10/23 09:23:52;;;;;;;4.63;1.80;;;;;;;;;;10392281;28;20041;-72
2021/10/23 09:29:10;;;;;;;5.40;2.33;;;;;;;;;;10390953;28;20068;-72
2021/10/23 09:34:16;;;;;;;5.25;2.30;;;;;;;;;;10391708;28;20037;-72
2021/10/23 09:39:22;;;;;;;6.85;2.42;;;;;;;;;;10390734;28;20461;-73
2021/10/23 09:44:25;;;;;;;5.78;2.45;;;;;;;;;;10382402;28;20151;-73
2021/10/23 09:49:29;;;;;;;6.65;2.35;;;;;;;;;;10389802;28;20498;-73
2021/10/23 09:54:37;;;;;;;7.25;2.60;;;;;;;;;;10386019;28;20038;-72
2021/10/23 09:59:40;;;;;;;4.22;2.05;;;;;;;;;;10394306;28;20049;-74
2021/10/23 10:04:45;;;;;;;3.45;2.10;;;;;;;;;;10394660;28;20037;-72
2021/10/23 10:09:47;;;;;;;5.18;2.35;;;;;;;;;;10399566;28;20046;-74
2021/10/23 10:14:51;;;;;;;4.60;1.83;;;;;;;;;;10390439;28;20061;-73
2021/10/23 10:19:55;;;;;;;8.35;3.05;;;;;;;;;;10402553;28;20049;-72
2021/10/23 10:25:13;;;;;;;5.53;1.92;;;;;;;;;;10393742;28;20109;-74
2021/10/23 10:30:27;;;;;;;3.63;2.10;;;;;;;;;;10399891;28;20053;-74
2021/10/23 10:46:49;;;;;;;5.60;2.47;;;;;;;;;;10391024;28;20132;-74
2021/10/23 10:51:53;;;;;;;4.75;1.67;;;;;;;;;;10394644;28;20120;-71
2021/10/23 10:56:56;;;;;;;4.40;2.00;;;;;;;;;;10391205;28;20054;-72
2021/10/23 11:02:06;;;;;;;4.38;2.10;;;;;;;;;;10392595;28;20041;-72
2021/10/23 11:07:10;;;;;;;4.40;1.90;;;;;;;;;;10403942;28;20037;-73
2021/10/23 11:12:14;;;;;;;3.95;2.00;;;;;;;;;;10384625;28;20065;-72
2021/10/23 11:17:18;;;;;;;5.63;2.28;;;;;;;;;;10390096;28;20490;-73
2021/10/23 11:22:24;;;;;;;5.00;2.55;;;;;;;;;;10392457;28;20136;-72
2021/10/23 11:27:33;;;;;;;4.03;2.15;;;;;;;;;;10389454;28;20468;-71
2021/10/23 11:32:37;;;;;;;3.80;2.25;;;;;;;;;;10397118;28;20048;-71
2021/10/23 11:37:41;;;;;;;2.72;1.60;;;;;;;;;;10383065;28;20049;-72
2021/10/23 11:42:47;;;;;;;2.70;1.40;;;;;;;;;;10391829;28;20046;-73
2021/10/23 11:47:51;;;;;;;3.13;1.90;;;;;;;;;;10394365;28;20191;-72
2021/10/23 11:52:57;;;;;;;3.25;2.20;;;;;;;;;;10391543;28;20375;-73
2021/10/23 11:58:00;;;;;;;3.72;2.10;;;;;;;;;;10388798;28;20066;-74
2021/10/23 12:03:05;;;;;;;2.88;2.00;;;;;;;;;;10388442;28;20049;-73
2021/10/23 12:08:22;;;;;;;4.18;1.90;;;;;;;;;;10389603;28;20041;-73
2021/10/23 12:13:25;;;;;;;2.90;1.30;;;;;;;;;;10390977;28;20048;-74
2021/10/23 12:18:28;;;;;;;5.40;2.20;;;;;;;;;;10391305;28;20423;-72
2021/10/23 12:23:50;;;;;;;3.30;1.60;;;;;;;;;;10383571;28;20378;-73
2021/10/23 12:29:00;;;;;;;5.35;2.00;;;;;;;;;;10392126;28;20038;-73
2021/10/23 12:34:03;;;;;;;6.55;1.90;;;;;;;;;;10387670;28;20042;-73
2021/10/23 12:39:21;;;;;;;3.80;1.60;;;;;;;;;;10384684;28;20383;-73
2021/10/23 12:44:24;;;;;;;;;;;;;;;;;;10387999;28;20405;-73
2021/10/23 12:49:28;;;;;;;2.65;1.48;;;;;;;;;;10390204;28;19965;-74
2021/10/23 12:54:30;;;;;;;;;;;;;;;;;;10390680;28;20068;-73
2021/10/23 12:59:34;;;;;;;3.70;1.60;;;;;;;;;;10392833;28;19951;-73
2021/10/23 13:04:37;;;;;;;3.47;1.63;;;;;;;;;;10390890;28;20057;-71
2021/10/23 13:09:40;;;;;;;2.72;1.90;;;;;;;;;;10391699;28;20268;-71
2021/10/23 13:14:45;;;;;;;2.85;1.55;;;;;;;;;;10387240;28;20347;-72
2021/10/23 13:19:48;;;;;;;4.20;1.83;;;;;;;;;;10387378;28;20120;-74
2021/10/23 13:24:50;;;;;;;6.35;3.38;;;;;;;;;;10395855;28;20454;-73
2021/10/23 13:29:55;;;;;;;3.08;1.80;;;;;;;;;;10391506;28;20057;-74
2021/10/23 13:34:58;;;;;;;3.38;1.30;;;;;;;;;;10387596;28;20084;-73
2021/10/23 13:40:00;;;;;;;2.53;1.40;;;;;;;;;;10391202;28;20051;-71
2021/10/23 13:45:03;;;;;;;;;;;;;;;;;;10392466;28;20041;-72
2021/10/23 13:50:08;;;;;;;3.23;1.63;;;;;;;;;;10389447;28;19940;-73
2021/10/23 13:55:10;;;;;;;3.65;1.75;;;;;;;;;;10388139;28;20037;-73
2021/10/23 14:00:13;;;;;;;;;;;;;;;;;;10387335;28;20052;-73
2021/10/23 14:05:17;;;;;;;3.85;1.80;;;;;;;;;;10387048;28;20401;-73
2021/10/23 14:10:20;;;;;;;4.22;1.58;;;;;;;;;;10389001;28;20041;-72
2021/10/23 14:15:23;;;;;;;3.45;1.70;;;;;;;;;;10386045;28;20049;-73
2021/10/23 14:20:27;;;;;;;4.78;2.22;;;;;;;;;;10391446;28;20042;-73
2021/10/23 14:25:30;;;;;;;3.25;2.00;;;;;;;;;;10386809;28;20041;-73
2021/10/23 14:30:33;;;;;;;3.45;1.70;;;;;;;;;;10386167;28;20045;-74
2021/10/23 14:35:37;;;;;;;5.18;1.70;;;;;;;;;;10393077;28;20071;-73
2021/10/23 14:40:40;;;;;;;2.10;1.50;;;;;;;;;;10386065;28;20152;-73
2021/10/23 14:45:43;;;;;;;8.00;3.35;;;;;;;;;;10393684;28;20437;-73
2021/10/23 14:50:47;;;;;;;2.80;1.65;;;;;;;;;;10393892;28;20084;-73
2021/10/23 14:55:49;;;;;;;;;;;;;;;;;;10402308;28;20034;-73
2021/10/23 15:00:52;;;;;;;7.50;3.67;;;;;;;;;;10397884;28;20271;-72
2021/10/23 15:05:57;;;;;;;4.85;1.92;;;;;;;;;;10392914;28;20100;-73
2021/10/23 15:11:00;;;;;;;5.97;2.33;;;;;;;;;;10391829;28;20065;-72
2021/10/23 15:16:03;;;;;;;5.47;2.13;;;;;;;;;;10397585;28;20045;-73
2021/10/23 15:21:07;;;;;;;5.88;2.83;;;;;;;;;;10391712;28;20053;-73
2021/10/23 15:26:10;;;;;;;7.00;2.40;;;;;;;;;;10396391;28;20041;-72
2021/10/23 15:31:14;;;;;;;5.03;2.45;;;;;;;;;;10392028;28;20127;-73
2021/10/23 15:36:17;;;;;;;;;;;;;;;;;;10389290;28;20136;-73
2021/10/23 15:41:38;;;;;;;3.78;2.08;;;;;;;;;;10388917;28;19921;-73
2021/10/23 15:46:40;;;;;;;4.72;2.38;;;;;;;;;;10397494;28;20041;-73
2021/10/23 15:51:44;;;;;;;3.03;1.73;;;;;;;;;;10392493;28;20102;-73
2021/10/23 15:56:53;;;;;;;7.20;2.63;;;;;;;;;;10390433;28;20033;-70
2021/10/23 16:01:56;;;;;;;7.32;2.90;;;;;;;;;;10392916;28;20045;-73
2021/10/23 16:07:00;;;;;;;8.77;2.33;;;;;;;;;;10394974;28;20100;-72
2021/10/23 16:12:04;;;;;;;4.57;2.17;;;;;;;;;;10383564;28;20060;-72
2021/10/23 16:17:07;;;;;;;4.80;1.98;;;;;;;;;;10392514;28;20095;-71
2021/10/23 16:22:10;;;;;;;5.82;2.33;;;;;;;;;;10396186;28;20483;-72
2021/10/23 16:27:14;;;;;;;8.88;2.58;;;;;;;;;;10398237;28;20854;-74
2021/10/23 16:32:17;;;;;;;4.03;2.05;;;;;;;;;;10396805;28;20073;-73
2021/10/23 16:37:19;;;;;;;5.78;2.58;;;;;;;;;;10394802;28;20109;-72
2021/10/23 16:42:24;;;;;;;7.70;2.50;;;;;;;;;;10385092;28;20068;-72
2021/10/23 16:47:27;;;;;;;6.05;2.55;;;;;;;;;;10385698;28;20041;-72
2021/10/23 16:52:30;;;;;;;6.05;2.28;;;;;;;;;;10392384;28;20037;-72
2021/10/23 16:57:35;;;;;;;5.72;2.50;;;;;;;;;;10388542;28;20148;-70
2021/10/23 17:02:37;;;;;;;;;;;;;;;;;;10390908;28;20370;-71
2021/10/23 17:07:40;;;;;;;7.95;2.95;;;;;;;;;;10396413;28;19956;-71
2021/10/23 17:12:44;;;;;;;8.52;2.95;;;;;;;;;;10389993;28;20422;-72
2021/10/23 17:17:47;;;;;;;;;;;;;;;;;;10392222;28;20046;-73
2021/10/23 17:22:50;;;;;;;7.65;2.90;;;;;;;;;;10385056;28;19926;-73
2021/10/23 17:27:54;;;;;;;12.55;2.75;;;;;;;;;;10390712;28;20045;-73
2021/10/23 17:32:58;;;;;;;9.80;3.60;;;;;;;;;;10388138;28;20208;-72
2021/10/23 17:38:01;;;;;;;;;;;;;;;;;;10385301;28;20046;-72
2021/10/23 17:43:05;;;;;;;5.93;2.80;;;;;;;;;;10384711;28;20129;-73
2021/10/23 17:48:08;;;;;;;5.78;2.70;;;;;;;;;;10387089;28;20120;-71
2021/10/23 17:53:11;;;;;;;7.15;2.58;;;;;;;;;;10390689;28;20121;-72
2021/10/23 17:58:15;;;;;;;6.33;3.00;;;;;;;;;;10376502;28;20045;-72
2021/10/23 18:03:18;;;;;;;;;;;;;;;;;;10390309;28;20064;-72
2021/10/23 18:08:22;;;;;;;13.98;4.40;;;;;;;;;;10390264;28;20359;-71
2021/10/23 18:13:31;;;;;;;7.10;2.95;;;;;;;;;;10386105;28;20112;-73
2021/10/23 18:18:34;;;;;;;9.82;3.75;;;;;;;;;;10392304;28;20476;-73
2021/10/23 18:23:38;;;;;;;9.68;4.38;;;;;;;;;;10396094;28;20645;-73
2021/10/23 18:28:42;;;;;;;10.77;4.23;;;;;;;;;;10402089;28;20107;-73
2021/10/23 18:33:45;;;;;;;;;;;;;;;;;;10394232;28;20142;-72
2021/10/23 18:38:48;;;;;;;14.38;4.07;;;;;;;;;;10388030;28;20012;-72
2021/10/23 18:43:52;;;;;;;8.80;3.95;;;;;;;;;;10390346;28;20113;-72
2021/10/23 18:48:56;;;;;;;10.32;4.40;;;;;;;;;;10397794;28;20099;-71
2021/10/23 18:53:59;;;;;;;12.35;4.65;;;;;;;;;;10393649;28;20069;-72
2021/10/23 18:59:03;;;;;;;11.45;4.15;;;;;;;;;;10400507;28;20140;-73
2021/10/23 19:04:06;;;;;;;11.23;4.13;;;;;;;;;;10402287;28;20069;-73
2021/10/23 19:09:09;;;;;;;12.15;4.40;;;;;;;;;;10398284;28;20410;-73
2021/10/23 19:14:13;;;;;;;9.02;3.60;;;;;;;;;;10399020;28;20038;-72
2021/10/23 19:19:16;;;;;;;8.98;3.95;;;;;;;;;;10395930;28;20092;-71
2021/10/23 19:24:23;;;;;;;11.60;4.07;;;;;;;;;;10399201;28;20386;-72
2021/10/23 19:29:27;;;;;;;10.02;4.00;;;;;;;;;;10393778;28;20042;-73
2021/10/23 19:34:50;;;;;;;9.68;4.13;;;;;;;;;;10392668;28;20382;-72
2021/10/23 19:40:13;;;;;;;12.90;4.85;;;;;;;;;;10394552;28;20060;-72
2021/10/23 19:45:38;;;;;;;13.85;5.20;;;;;;;;;;10391910;28;20455;-71
2021/10/23 19:51:01;;;;;;;;;;;;;;;;;;10387201;28;20573;-73
2021/10/23 19:56:17;;;;;;;11.32;4.68;;;;;;;;;;10393232;28;19927;-73
2021/10/23 20:01:21;;;;;;;13.23;4.15;;;;;;;;;;10382065;28;20545;-72
2021/10/23 20:06:24;;;;;;;7.23;3.77;;;;;;;;;;10401878;28;20041;-73
2021/10/23 20:11:27;;;;;;;10.13;4.43;;;;;;;;;;10397899;28;20045;-73
2021/10/23 20:16:32;;;;;;;9.65;4.20;;;;;;;;;;10395791;28;20116;-75
2021/10/23 20:21:35;;;;;;;8.20;3.67;;;;;;;;;;10399430;28;20061;-73
2021/10/23 20:26:38;;;;;;;6.33;3.07;;;;;;;;;;10398168;28;20095;-74
2021/10/23 20:31:43;;;;;;;5.05;2.63;;;;;;;;;;10398886;28;20049;-74
2021/10/23 20:36:45;;;;;;;9.00;4.18;;;;;;;;;;10390055;28;20390;-72
2021/10/23 20:41:48;;;;;;;9.07;2.40;;;;;;;;;;10390321;28;20488;-72
2021/10/23 20:46:55;;;;;;;6.90;2.28;;;;;;;;;;10390473;28;20033;-72
2021/10/23 20:51:57;;;;;;;2.00;1.43;;;;;;;;;;10387999;28;20079;-71
2021/10/23 20:57:00;;;;;;;6.30;2.33;;;;;;;;;;10396290;28;20658;-71
2021/10/23 21:02:05;;;;;;;13.13;3.70;;;;;;;;;;10397007;28;20041;-72
2021/10/23 21:07:08;;;;;;;8.83;3.97;;;;;;;;;;10390161;28;20064;-71
2021/10/23 21:12:11;;;;;;;7.87;3.60;;;;;;;;;;10395343;28;20041;-72
2021/10/23 21:17:15;;;;;;;7.97;3.20;;;;;;;;;;10387895;28;20042;-73
2021/10/23 21:22:18;;;;;;;;;;;;;;;;;;10390148;28;20044;-72
2021/10/23 21:27:20;;;;;;;7.43;2.97;;;;;;;;;;10390819;28;19921;-73
2021/10/23 21:32:25;;;;;;;16.50;4.10;;;;;;;;;;10384834;28;20049;-73
2021/10/23 21:37:27;;;;;;;;;;;;;;;;;;10389232;28;20383;-73
2021/10/23 21:42:30;;;;;;;9.30;3.20;;;;;;;;;;10393174;28;19959;-73
2021/10/23 21:47:35;;;;;;;6.97;1.83;;;;;;;;;;10386246;28;20107;-72
2021/10/23 21:52:38;;;;;;;10.93;3.80;;;;;;;;;;10391430;28;20493;-70
2021/10/23 21:57:40;;;;;;;8.13;3.70;;;;;;;;;;10391636;28;20099;-71
2021/10/23 22:02:45;;;;;;;9.93;3.83;;;;;;;;;;10393100;28;20037;-72
2021/10/23 22:07:48;;;;;;;11.27;3.60;;;;;;;;;;10390989;28;20063;-72
2021/10/23 22:12:51;;;;;;;14.03;4.20;;;;;;;;;;10388635;28;20077;-73
2021/10/23 22:17:55;;;;;;;16.43;5.67;;;;;;;;;;10390676;28;20045;-73
2021/10/23 22:22:58;;;;;;;;;;;;;;;;;;10386929;28;20429;-72
2021/10/23 22:28:02;;;;;;;21.47;5.53;;;;;;;;;;10394908;28;21191;-73
2021/10/23 22:33:06;;;;;;;23.70;6.13;;;;;;;;;;10392492;28;20052;-73
2021/10/23 22:38:09;;;;;;;36.63;8.70;;;;;;;;;;10383839;28;20454;-72
2021/10/23 22:43:12;;;;;;;20.10;6.30;;;;;;;;;;10389593;28;20045;-71
2021/10/23 22:48:17;;;;;;;11.33;3.60;;;;;;;;;;10375969;28;20034;-71
2021/10/23 22:53:19;;;;;;;;;;;;;;;;;;10381422;28;20045;-72
2021/10/23 22:58:22;;;;;;;7.53;3.73;;;;;;;;;;10384752;28;19921;-70
2021/10/23 23:03:26;;;;;;;14.30;3.47;;;;;;;;;;10389298;28;20042;-72
2021/10/23 23:08:29;;;;;;;5.60;2.45;;;;;;;;;;10395278;28;20175;-74
2021/10/23 23:13:32;;;;;;;11.93;3.23;;;;;;;;;;10398078;28;20041;-72
2021/10/23 23:18:37;;;;;;;8.25;3.67;;;;;;;;;;10382329;28;20057;-69
2021/10/23 23:23:39;;;;;;;;;;;;;;;;;;10390076;28;21405;-72
2021/10/23 23:28:42;;;;;;;4.27;2.30;;;;;;;;;;10395814;28;19976;-72
2021/10/23 23:33:46;;;;;;;10.23;2.50;;;;;;;;;;10394029;28;20045;-73
2021/10/23 23:38:49;;;;;;;3.00;1.33;;;;;;;;;;10393397;28;20529;-73
2021/10/23 23:43:52;;;;;;;5.20;1.73;;;;;;;;;;10396984;28;20057;-73
2021/10/23 23:48:57;;;;;;;6.47;2.33;;;;;;;;;;10395496;28;20049;-72
2021/10/23 23:53:59;;;;;;;;;;;;;;;;;;10389190;28;20120;-71
2021/10/23 23:59:02;;;;;;;8.63;2.87;;;;;;;;;;10382987;28;19928;-71
